Time;durP1;ratioP1;P1;durP2;ratioP2;P2;SDS_P1;SDS_P2;PMS_P1;PMS_P2;Temp;Humidity;BMP_temperature;BMP_pressure;BME280_temperature;BME280_humidity;BME280_pressure;Samples;Min_cycle;Max_cycle;Signal;HPM_P1;HPM_P2
2023/01/30 00:00:52;;;;;;;53.85;39.60;;;;;;;3.95;100.00;101801.34;5036439;28;20040;-85
2023/01/30 00:03:17;;;;;;;51.80;40.30;;;;;;;3.96;100.00;101810.84;5046668;28;20020;-85
2023/01/30 00:05:43;;;;;;;49.90;38.75;;;;;;;3.96;100.00;101800.44;5050252;28;20435;-93
2023/01/30 00:08:08;;;;;;;48.38;39.05;;;;;;;3.98;100.00;101770.00;5038741;28;20036;-92
2023/01/30 00:10:33;;;;;;;49.67;38.95;;;;;;;3.99;100.00;101779.53;5044302;28;20024;-92
2023/01/30 00:12:59;;;;;;;50.58;38.35;;;;;;;4.04;100.00;101788.06;5030667;28;20033;-93
2023/01/30 00:15:24;;;;;;;50.67;38.15;;;;;;;4.04;100.00;101795.88;5054199;28;20104;-93
2023/01/30 00:17:50;;;;;;;49.28;39.13;;;;;;;4.06;100.00;101791.47;5043381;28;20552;-92
2023/01/30 00:20:15;;;;;;;44.58;37.75;;;;;;;4.08;100.00;101758.41;5039871;28;20025;-91
2023/01/30 00:22:41;;;;;;;52.33;38.88;;;;;;;4.10;100.00;101761.81;5043752;28;20095;-92
2023/01/30 00:25:06;;;;;;;47.78;37.20;;;;;;;4.12;100.00;101760.03;5039187;28;20025;-92
2023/01/30 00:27:32;;;;;;;45.35;38.15;;;;;;;4.15;100.00;101766.88;5039042;28;20029;-92
2023/01/30 00:29:57;;;;;;;50.17;37.35;;;;;;;4.15;100.00;101767.72;5039060;28;20051;-92
2023/01/30 00:32:26;;;;;;;48.33;36.55;;;;;;;4.18;100.00;101782.41;5046935;28;20035;-92
2023/01/30 00:34:51;;;;;;;44.90;37.03;;;;;;;4.20;100.00;101771.03;5058646;28;20059;-92
2023/01/30 00:37:17;;;;;;;47.65;37.92;;;;;;;4.22;100.00;101773.59;5058564;28;20021;-93
2023/01/30 00:39:53;;;;;;;45.55;38.55;;;;;;;4.26;100.00;101769.97;5040174;28;20070;-93
2023/01/30 00:47:55;;;;;;;40.83;36.15;;;;;;;4.29;100.00;101764.66;5058765;28;20499;-92
2023/01/30 00:50:20;;;;;;;48.15;37.08;;;;;;;4.28;100.00;101761.22;5051036;28;20060;-93
2023/01/30 00:52:48;;;;;;;46.17;37.58;;;;;;;4.31;100.00;101763.72;5058680;28;20362;-91
2023/01/30 00:55:14;;;;;;;44.75;37.13;;;;;;;4.34;100.00;101765.34;5027984;28;20059;-93
2023/01/30 00:57:40;;;;;;;46.70;37.70;;;;;;;4.36;100.00;101758.34;5060669;28;20465;-92
2023/01/30 01:00:07;;;;;;;45.88;36.78;;;;;;;4.36;100.00;101751.38;5059936;28;20473;-91
2023/01/30 01:02:33;;;;;;;43.58;36.67;;;;;;;4.37;100.00;101755.69;5043268;28;20021;-91
2023/01/30 01:04:59;;;;;;;46.22;36.70;;;;;;;4.36;100.00;101743.56;5061011;28;20052;-93
2023/01/30 01:07:24;;;;;;;43.70;37.10;;;;;;;4.39;100.00;101743.44;5056060;28;20060;-93
2023/01/30 01:09:49;;;;;;;41.25;36.08;;;;;;;4.39;100.00;101751.28;5054609;28;20032;-92
2023/01/30 01:12:15;;;;;;;45.08;37.40;;;;;;;4.40;100.00;101746.91;5056692;28;20052;-92
2023/01/30 01:14:40;;;;;;;40.67;35.78;;;;;;;4.42;100.00;101737.31;5058999;28;20033;-92
2023/01/30 01:17:06;;;;;;;47.45;37.47;;;;;;;4.46;100.00;101732.84;5059935;28;20448;-93
2023/01/30 01:19:31;;;;;;;46.92;38.15;;;;;;;4.47;100.00;101734.56;5046087;28;20029;-92
2023/01/30 01:21:56;;;;;;;40.53;35.20;;;;;;;4.49;100.00;101738.81;5057740;28;20021;-84
2023/01/30 01:24:22;;;;;;;44.47;36.63;;;;;;;4.50;100.00;101737.06;5066468;28;20397;-92
2023/01/30 01:26:47;;;;;;;41.90;36.35;;;;;;;4.54;100.00;101733.44;5043175;28;20029;-94
2023/01/30 01:29:15;;;;;;;43.15;35.67;;;;;;;4.54;100.00;101726.47;5053467;28;20056;-94
2023/01/30 01:31:42;;;;;;;41.47;35.50;;;;;;;4.58;100.00;101714.19;5055018;28;20024;-94
2023/01/30 01:34:07;;;;;;;43.97;36.83;;;;;;;4.58;100.00;101716.78;5053512;28;20029;-93
2023/01/30 01:36:32;;;;;;;42.60;35.25;;;;;;;4.61;100.00;101704.50;5053977;28;20547;-93
2023/01/30 01:38:58;;;;;;;40.67;35.22;;;;;;;4.63;100.00;101704.44;5031426;28;20030;-93
2023/01/30 01:41:23;;;;;;;44.83;36.53;;;;;;;4.64;100.00;101701.78;5045403;28;20190;-93
2023/01/30 01:44:09;;;;;;;41.50;35.30;;;;;;;4.69;100.00;101719.84;5034720;28;20040;-92
2023/01/30 01:46:41;;;;;;;43.05;35.30;;;;;;;4.68;100.00;101715.53;5054564;28;20090;-93
2023/01/30 01:49:13;;;;;;;39.72;35.13;;;;;;;4.69;100.00;101707.66;5053072;28;20461;-92
2023/01/30 01:52:10;;;;;;;39.97;34.28;;;;;;;4.72;100.00;101689.31;5035708;28;20078;-93
2023/01/30 01:54:41;;;;;;;40.45;35.17;;;;;;;4.74;100.00;101689.25;5053786;28;20025;-92
2023/01/30 01:57:12;;;;;;;40.63;35.08;;;;;;;4.76;100.00;101674.41;5052037;28;20433;-92
2023/01/30 01:59:45;;;;;;;40.05;34.40;;;;;;;4.75;100.00;101672.72;5024853;28;20104;-91
2023/01/30 02:02:13;;;;;;;42.13;34.67;;;;;;;4.78;100.00;101651.72;5053203;28;20100;-92
2023/01/30 02:05:01;;;;;;;42.67;34.88;;;;;;;4.80;100.00;101657.75;5035400;28;20082;-93
2023/01/30 02:07:32;;;;;;;40.67;34.85;;;;;;;4.84;100.00;101671.53;5051791;28;20025;-91
2023/01/30 02:09:58;;;;;;;37.97;33.42;;;;;;;4.84;100.00;101664.56;5051521;28;20033;-92
2023/01/30 02:12:24;;;;;;;41.72;34.63;;;;;;;4.86;100.00;101669.72;5051198;28;20409;-92
2023/01/30 02:14:50;;;;;;;41.55;33.60;;;;;;;4.85;100.00;101663.66;5051071;28;20139;-92
2023/01/30 02:17:15;;;;;;;40.67;33.58;;;;;;;4.89;100.00;101660.03;5017507;28;20025;-91
2023/01/30 02:19:56;;;;;;;40.25;33.70;;;;;;;4.91;100.00;101668.66;5034983;28;20040;-85
2023/01/30 02:22:41;;;;;;;40.35;33.67;;;;;;;4.93;100.00;101645.13;5053246;28;20473;-92
2023/01/30 02:25:06;;;;;;;40.58;34.05;;;;;;;4.94;100.00;101634.63;5051197;28;20138;-92
2023/01/30 02:28:01;;;;;;;39.90;32.53;;;;;;;4.95;100.00;101638.94;5053990;28;20432;-91
2023/01/30 02:30:57;;;;;;;41.00;33.83;;;;;;;4.97;100.00;101629.28;5015203;28;20041;-93
2023/01/30 02:33:33;;;;;;;38.58;33.40;;;;;;;4.97;100.00;101629.28;5041755;28;20030;-91
2023/01/30 02:36:22;;;;;;;42.75;34.20;;;;;;;4.98;100.00;101627.53;5047562;28;20036;-91
2023/01/30 02:42:30;;;;;;;43.85;36.00;;;;;;;5.02;100.00;101631.72;5045048;28;20063;-92
2023/01/30 02:45:15;;;;;;;43.67;34.55;;;;;;;5.02;100.00;101636.94;5034470;28;20037;-90
2023/01/30 02:51:14;;;;;;;43.45;35.08;;;;;;;5.00;100.00;101631.78;5069704;28;20074;-90
2023/01/30 02:53:40;;;;;;;41.90;35.40;;;;;;;5.00;100.00;101616.13;5026695;28;20576;-87
2023/01/30 02:56:05;;;;;;;44.10;36.33;;;;;;;5.00;100.00;101626.56;5033571;28;20033;-84
2023/01/30 02:58:37;;;;;;;47.63;36.15;;;;;;;5.01;100.00;101628.28;5041305;28;20025;-90
2023/01/30 03:01:15;;;;;;;43.85;37.30;;;;;;;5.02;100.00;101629.97;5052451;28;20112;-91
2023/01/30 03:04:06;;;;;;;46.92;36.47;;;;;;;5.04;100.00;101627.31;5056167;28;20428;-85
2023/01/30 03:06:50;;;;;;;43.70;35.47;;;;;;;5.02;100.00;101614.31;5066384;28;20444;-90
2023/01/30 03:09:29;;;;;;;44.22;37.20;;;;;;;5.04;100.00;101614.25;5059954;28;20031;-92
2023/01/30 03:12:16;;;;;;;47.72;38.05;;;;;;;5.07;100.00;101615.91;5059739;28;20016;-84
2023/01/30 03:14:48;;;;;;;43.88;36.38;;;;;;;5.06;100.00;101608.97;5035754;28;20021;-92
2023/01/30 03:17:16;;;;;;;45.55;37.10;;;;;;;5.06;100.00;101599.41;5043765;28;20572;-93
2023/01/30 03:19:42;;;;;;;47.65;38.35;;;;;;;5.06;100.00;101603.78;5033133;28;20548;-82
2023/01/30 03:22:08;;;;;;;49.40;40.30;;;;;;;5.04;100.00;101596.84;5032248;28;20131;-82
2023/01/30 03:24:34;;;;;;;47.22;39.58;;;;;;;5.06;100.00;101598.56;5032999;28;20025;-93
2023/01/30 03:27:09;;;;;;;48.60;40.72;;;;;;;5.04;100.00;101602.06;5032228;28;20029;-92
2023/01/30 03:29:34;;;;;;;49.25;40.78;;;;;;;5.04;100.00;101601.22;5045171;28;20029;-90
2023/01/30 03:32:00;;;;;;;51.85;40.80;;;;;;;5.02;100.00;101603.88;5048645;28;20032;-90
2023/01/30 03:34:25;;;;;;;50.17;40.83;;;;;;;5.02;100.00;101603.88;5039734;28;20025;-90
2023/01/30 03:36:51;;;;;;;52.67;40.70;;;;;;;4.99;100.00;101604.00;5032625;28;20035;-82
2023/01/30 03:39:17;;;;;;;46.55;41.05;;;;;;;4.99;100.00;101597.94;5050350;28;20488;-79
2023/01/30 03:41:42;;;;;;;51.53;42.42;;;;;;;4.98;100.00;101584.06;5050214;28;20013;-79
2023/01/30 03:44:08;;;;;;;52.58;41.75;;;;;;;5.00;100.00;101578.78;5047962;28;20039;-80
2023/01/30 03:46:33;;;;;;;50.92;42.45;;;;;;;4.99;100.00;101574.47;5045997;28;20033;-81
2023/01/30 03:48:59;;;;;;;55.47;42.47;;;;;;;5.00;100.00;101582.25;5039720;28;20028;-90
2023/01/30 03:51:24;;;;;;;56.15;43.28;;;;;;;4.99;100.00;101587.50;5050523;28;20120;-90
2023/01/30 03:53:49;;;;;;;51.13;42.60;;;;;;;4.99;100.00;101577.94;5050739;28;20021;-89
2023/01/30 03:56:15;;;;;;;52.83;43.65;;;;;;;4.99;100.00;101585.75;5032298;28;20036;-89
2023/01/30 03:58:40;;;;;;;53.90;43.20;;;;;;;5.03;100.00;101586.47;5033163;28;20013;-89
2023/01/30 04:01:05;;;;;;;58.38;44.40;;;;;;;5.00;100.00;101577.03;5048425;28;20362;-88
2023/01/30 04:03:32;;;;;;;52.90;43.70;;;;;;;5.02;100.00;101584.78;5037931;28;20505;-89
2023/01/30 04:05:58;;;;;;;53.25;43.88;;;;;;;5.02;100.00;101590.00;5018029;28;20531;-89
2023/01/30 04:08:23;;;;;;;57.80;44.47;;;;;;;5.04;100.00;101586.41;5026637;28;20036;-88
2023/01/30 04:10:48;;;;;;;53.42;42.88;;;;;;;5.08;100.00;101599.34;5045366;28;20033;-81
2023/01/30 04:13:14;;;;;;;52.42;44.28;;;;;;;5.09;100.00;101588.00;5049649;28;20100;-88
2023/01/30 04:15:39;;;;;;;52.15;42.25;;;;;;;5.06;100.00;101590.72;5049683;28;20028;-89
2023/01/30 04:18:05;;;;;;;54.88;43.38;;;;;;;5.09;100.00;101593.22;5046501;28;20614;-82
2023/01/30 04:20:30;;;;;;;53.60;43.58;;;;;;;5.10;100.00;101584.47;5028117;28;20374;-89
2023/01/30 04:22:56;;;;;;;50.38;41.72;;;;;;;5.13;100.00;101573.94;5029942;28;20433;-88
2023/01/30 04:25:21;;;;;;;49.83;41.53;;;;;;;5.15;100.00;101579.94;5029677;28;20160;-83
2023/01/30 04:27:50;;;;;;;51.15;40.50;;;;;;;5.17;100.00;101576.34;5031982;28;20040;-88
2023/01/30 04:30:15;;;;;;;44.97;38.63;;;;;;;5.20;100.00;101575.38;5049410;28;20020;-88
2023/01/30 04:32:41;;;;;;;46.65;37.90;;;;;;;5.23;100.00;101563.09;5028032;28;20104;-88
2023/01/30 04:35:06;;;;;;;44.53;35.60;;;;;;;5.28;100.00;101562.91;5029423;28;20067;-88
2023/01/30 04:37:32;;;;;;;47.42;36.90;;;;;;;5.27;100.00;101567.25;5039266;28;20040;-88
2023/01/30 04:39:57;;;;;;;40.78;34.22;;;;;;;5.33;100.00;101566.16;5031749;28;20028;-89
2023/01/30 04:42:22;;;;;;;46.60;35.00;;;;;;;5.36;100.00;101566.03;5047898;28;20032;-88
2023/01/30 04:44:48;;;;;;;38.30;33.13;;;;;;;5.37;100.00;101565.13;5048776;28;20056;-87
2023/01/30 04:47:13;;;;;;;46.55;32.05;;;;;;;5.41;100.00;101564.09;5049058;28;20389;-89
2023/01/30 04:49:38;;;;;;;38.45;30.92;;;;;;;5.42;100.00;101568.38;5048525;28;20491;-83
2023/01/30 04:52:06;;;;;;;37.90;29.73;;;;;;;5.43;100.00;101572.69;5045391;28;20108;-88
2023/01/30 04:54:32;;;;;;;39.40;28.27;;;;;;;5.46;100.00;101566.50;5043071;28;20026;-88
2023/01/30 04:56:57;;;;;;;39.28;27.95;;;;;;;5.47;100.00;101574.25;5039110;28;20500;-88
2023/01/30 04:59:23;;;;;;;37.80;26.95;;;;;;;5.50;100.00;101579.34;5030759;28;20477;-88
2023/01/30 05:01:48;;;;;;;30.08;23.42;;;;;;;5.54;100.00;101580.94;5050685;28;20047;-89
2023/01/30 05:04:14;;;;;;;31.92;22.80;;;;;;;5.56;100.00;101568.66;5052828;28;20025;-88
2023/01/30 05:06:39;;;;;;;33.72;21.92;;;;;;;5.60;100.00;101578.09;5052396;28;20021;-84
2023/01/30 05:09:05;;;;;;;32.70;20.95;;;;;;;5.61;100.00;101574.56;5052418;28;20037;-89
2023/01/30 05:11:31;;;;;;;31.65;20.55;;;;;;;5.65;100.00;101581.34;5029778;28;20466;-88
2023/01/30 05:13:57;;;;;;;30.98;19.88;;;;;;;5.70;100.00;101588.16;5051235;28;20108;-89
2023/01/30 05:16:23;;;;;;;27.13;18.27;;;;;;;5.71;100.00;101576.78;5035067;28;20505;-89
2023/01/30 05:18:49;;;;;;;30.63;18.38;;;;;;;5.74;100.00;101587.94;5034732;28;20043;-89
2023/01/30 05:21:18;;;;;;;26.70;17.25;;;;;;;5.78;100.00;101583.44;5033508;28;20473;-89
2023/01/30 05:23:43;;;;;;;27.25;16.13;;;;;;;5.80;100.00;101571.16;5053159;28;20538;-89
2023/01/30 05:26:08;;;;;;;25.02;14.90;;;;;;;5.85;100.00;101571.81;5035659;28;20029;-90
2023/01/30 05:28:34;;;;;;;21.60;14.57;;;;;;;5.86;100.00;101565.69;5042292;28;20389;-89
2023/01/30 05:31:04;;;;;;;26.65;15.10;;;;;;;5.87;100.00;101568.22;5051147;28;20467;-83
2023/01/30 05:33:30;;;;;;;20.48;13.15;;;;;;;5.88;100.00;101569.91;5050400;28;20044;-89
2023/01/30 05:35:56;;;;;;;22.10;12.07;;;;;;;5.90;100.00;101567.28;5052933;28;20421;-89
2023/01/30 05:38:22;;;;;;;22.92;11.90;;;;;;;5.91;100.00;101568.97;5049635;28;20516;-89
2023/01/30 05:41:00;;;;;;;24.33;12.43;;;;;;;5.91;100.00;101568.97;5023331;28;20029;-89
2023/01/30 05:43:25;;;;;;;25.38;11.40;;;;;;;5.95;100.00;101570.53;5033251;28;20033;-90
2023/01/30 05:45:53;;;;;;;22.10;10.60;;;;;;;5.95;100.00;101567.91;5030555;28;20393;-90
2023/01/30 05:48:18;;;;;;;25.70;10.70;;;;;;;5.96;100.00;101567.00;5047497;28;20436;-83
2023/01/30 05:50:44;;;;;;;21.92;10.30;;;;;;;5.95;100.00;101574.00;5053088;28;20036;-89
2023/01/30 05:53:09;;;;;;;26.35;10.77;;;;;;;5.99;100.00;101566.88;5034017;28;20025;-89
2023/01/30 05:55:34;;;;;;;21.70;9.93;;;;;;;5.98;100.00;101549.50;5050627;28;20036;-88
2023/01/30 05:58:00;;;;;;;21.98;9.98;;;;;;;5.99;100.00;101566.88;5051726;28;20052;-90
2023/01/30 06:00:25;;;;;;;23.83;9.98;;;;;;;5.98;100.00;101570.41;5031525;28;20032;-90
2023/01/30 06:02:50;;;;;;;25.83;9.48;;;;;;;6.01;100.00;101585.97;5047519;28;20043;-89
2023/01/30 06:05:18;;;;;;;25.13;10.27;;;;;;;6.02;100.00;101597.25;5046083;28;20025;-89
2023/01/30 06:07:44;;;;;;;21.92;8.93;;;;;;;6.04;100.00;101587.59;5034358;28;20036;-89
2023/01/30 06:10:09;;;;;;;19.90;8.88;;;;;;;6.06;100.00;101594.44;5049391;28;20025;-89
2023/01/30 06:12:35;;;;;;;26.10;9.63;;;;;;;6.07;100.00;101604.00;5051065;28;20025;-90
2023/01/30 06:15:00;;;;;;;19.17;8.50;;;;;;;6.06;100.00;101599.69;5034348;28;20444;-90
2023/01/30 06:17:26;;;;;;;22.38;7.60;;;;;;;6.08;100.00;101584.78;5052175;28;20490;-90
2023/01/30 06:19:51;;;;;;;19.40;6.80;;;;;;;6.11;100.00;101592.47;5045349;28;20113;-91
2023/01/30 06:22:17;;;;;;;19.17;7.05;;;;;;;6.10;100.00;101590.78;5030945;28;20067;-91
2023/01/30 06:24:42;;;;;;;19.23;7.28;;;;;;;6.11;100.00;101602.94;5048994;28;20056;-91
2023/01/30 06:27:07;;;;;;;20.60;7.07;;;;;;;6.11;100.00;101600.31;5064455;28;20044;-90
2023/01/30 06:29:33;;;;;;;18.13;6.22;;;;;;;6.10;100.00;101611.69;5071626;28;20033;-83
2023/01/30 06:31:58;;;;;;;22.67;7.03;;;;;;;6.07;100.00;101611.81;5064998;28;20009;-91
2023/01/30 06:34:23;;;;;;;22.00;6.25;;;;;;;6.03;100.00;101625.09;5061798;28;20036;-91
2023/01/30 06:36:49;;;;;;;20.75;6.43;;;;;;;6.00;100.00;101636.47;5051359;28;20009;-90
2023/01/30 06:39:14;;;;;;;17.00;5.60;;;;;;;5.99;100.00;101640.00;5051798;28;20067;-91
2023/01/30 06:41:39;;;;;;;13.85;5.50;;;;;;;5.94;100.00;101631.53;5053910;28;20098;-91
2023/01/30 06:44:05;;;;;;;18.10;5.60;;;;;;;5.91;100.00;101631.66;5052018;28;20094;-83
2023/01/30 06:46:31;;;;;;;20.48;6.30;;;;;;;5.82;100.00;101621.56;5030839;28;20039;-89
2023/01/30 06:48:56;;;;;;;17.15;5.45;;;;;;;5.78;100.00;101635.66;5051042;28;20021;-90
2023/01/30 06:51:21;;;;;;;18.25;5.38;;;;;;;5.76;100.00;101642.72;5052709;28;20099;-91
2023/01/30 06:53:47;;;;;;;18.70;4.85;;;;;;;5.71;100.00;101647.28;5051970;28;20032;-89
2023/01/30 06:56:12;;;;;;;16.80;4.72;;;;;;;5.70;100.00;101649.03;5048464;28;20020;-90
2023/01/30 06:58:38;;;;;;;18.67;4.65;;;;;;;5.66;100.00;101647.47;5049092;28;20041;-90
2023/01/30 07:01:03;;;;;;;18.48;5.07;;;;;;;5.62;100.00;101633.69;5054583;28;20477;-90
2023/01/30 07:03:28;;;;;;;17.75;4.68;;;;;;;5.56;100.00;101620.88;5055177;28;20509;-90
2023/01/30 07:05:57;;;;;;;15.40;4.88;;;;;;;5.51;100.00;101606.31;5054805;28;20466;-91
2023/01/30 07:08:23;;;;;;;21.05;4.43;;;;;;;5.49;100.00;101613.34;5062327;28;20540;-90
2023/01/30 07:10:48;;;;;;;16.40;3.90;;;;;;;5.47;100.00;101626.47;5048329;28;20151;-91
2023/01/30 07:13:14;;;;;;;18.08;5.00;;;;;;;5.44;100.00;101637.03;5039984;28;20033;-90
2023/01/30 07:15:39;;;;;;;22.23;4.43;;;;;;;5.41;100.00;101637.16;5071392;28;20028;-92
2023/01/30 07:18:05;;;;;;;17.48;4.55;;;;;;;5.37;100.00;101634.72;5048478;28;20055;-84
2023/01/30 07:20:30;;;;;;;22.90;4.72;;;;;;;5.35;100.00;101643.47;5069360;28;20032;-92
2023/01/30 07:22:59;;;;;;;19.95;4.70;;;;;;;5.35;100.00;101629.56;5069367;28;20062;-91
2023/01/30 07:25:33;;;;;;;19.27;4.28;;;;;;;5.32;100.00;101637.53;5051681;28;20071;-92
2023/01/30 07:28:02;;;;;;;21.50;4.63;;;;;;;5.27;100.00;101650.75;5047235;28;20023;-91
2023/01/30 07:30:34;;;;;;;17.20;4.80;;;;;;;5.26;100.00;101653.41;5043228;28;20029;-92
2023/01/30 07:33:00;;;;;;;;;;;;;;;5.29;100.00;101661.13;5069630;28;20023;-93
2023/01/30 07:35:28;;;;;;;19.42;4.38;;;;;;;5.18;100.00;101652.84;5064389;28;19916;-91
2023/01/30 07:37:54;;;;;;;18.13;4.63;;;;;;;5.16;100.00;101657.28;5052197;28;20552;-91
2023/01/30 07:40:20;;;;;;;15.48;4.55;;;;;;;5.12;100.00;101666.13;5045874;28;20119;-92
2023/01/30 07:43:09;;;;;;;15.30;4.63;;;;;;;5.14;100.00;101661.69;5059910;28;20103;-91
2023/01/30 07:45:38;;;;;;;20.75;4.70;;;;;;;5.08;100.00;101675.81;5060762;28;20557;-90
2023/01/30 07:48:05;;;;;;;20.90;5.28;;;;;;;5.06;100.00;101671.56;5077026;28;20023;-91
2023/01/30 07:50:31;;;;;;;22.95;4.97;;;;;;;5.04;100.00;101669.88;5071002;28;20028;-91
2023/01/30 07:52:56;;;;;;;16.83;4.47;;;;;;;5.00;100.00;101678.72;5074379;28;20499;-91
2023/01/30 07:55:22;;;;;;;25.15;4.95;;;;;;;5.00;100.00;101664.84;5055839;28;20397;-90
2023/01/30 07:57:47;;;;;;;19.40;4.25;;;;;;;4.98;100.00;101670.13;5072666;28;20419;-90
2023/01/30 08:00:13;;;;;;;26.38;5.20;;;;;;;4.96;100.00;101664.09;5073785;28;20036;-92
2023/01/30 08:02:38;;;;;;;24.23;4.78;;;;;;;4.96;100.00;101677.16;5070985;28;20056;-84
2023/01/30 08:05:07;;;;;;;26.67;4.53;;;;;;;4.95;100.00;101675.44;5069586;28;20067;-89
2023/01/30 08:07:32;;;;;;;23.65;4.97;;;;;;;4.98;100.00;101674.47;5045320;28;20059;-87
2023/01/30 08:09:58;;;;;;;28.08;5.45;;;;;;;4.99;100.00;101671.81;5038142;28;20116;-88
2023/01/30 08:12:24;;;;;;;23.35;5.18;;;;;;;5.01;100.00;101683.03;5027605;28;20033;-88
2023/01/30 08:14:49;;;;;;;18.30;4.32;;;;;;;5.03;100.00;101689.03;5029549;28;20029;-83
2023/01/30 08:17:15;;;;;;;25.75;5.20;;;;;;;5.04;100.00;101701.19;5030259;28;20453;-88
2023/01/30 08:19:40;;;;;;;24.77;5.10;;;;;;;5.04;100.00;101697.72;5048646;28;20500;-88
2023/01/30 08:22:06;;;;;;;22.20;4.88;;;;;;;5.08;100.00;101701.06;5049888;28;20068;-88
2023/01/30 08:24:31;;;;;;;21.55;5.20;;;;;;;5.13;100.00;101707.78;5047608;28;20053;-89
2023/01/30 08:26:57;;;;;;;27.63;6.00;;;;;;;5.17;100.00;101705.91;5031125;28;20033;-89
2023/01/30 08:29:23;;;;;;;26.63;5.05;;;;;;;5.16;100.00;101712.03;5029714;28;20163;-88
2023/01/30 08:31:48;;;;;;;21.98;5.25;;;;;;;5.23;100.00;101713.53;5061142;28;20060;-86
2023/01/30 08:34:13;;;;;;;24.38;5.13;;;;;;;5.25;100.00;101714.34;5036083;28;20024;-88
2023/01/30 08:36:39;;;;;;;25.92;5.65;;;;;;;5.26;100.00;101710.81;5058834;28;20024;-88
2023/01/30 08:39:05;;;;;;;24.83;5.60;;;;;;;5.29;98.80;101706.34;5065987;28;20040;-87
2023/01/30 08:41:30;;;;;;;25.73;5.13;;;;;;;5.31;98.92;101704.50;5064509;28;20029;-84
2023/01/30 08:43:56;;;;;;;27.55;6.07;;;;;;;5.37;99.34;101713.00;5030852;28;20031;-88
2023/01/30 08:46:21;;;;;;;23.60;5.70;;;;;;;5.41;98.76;101715.44;5031920;28;20029;-88
2023/01/30 08:48:47;;;;;;;24.75;4.78;;;;;;;5.44;98.63;101720.53;5033172;28;20116;-88
2023/01/30 08:51:13;;;;;;;26.65;5.68;;;;;;;5.49;98.06;101729.03;5043410;28;20037;-88
2023/01/30 08:53:39;;;;;;;26.38;5.30;;;;;;;5.52;96.78;101718.47;5051852;28;20029;-87
2023/01/30 08:56:05;;;;;;;30.38;5.60;;;;;;;5.53;97.40;101720.19;5035887;28;20090;-88
2023/01/30 08:58:30;;;;;;;23.15;4.68;;;;;;;5.54;97.92;101727.09;5053817;28;20505;-88
2023/01/30 09:00:56;;;;;;;29.52;6.25;;;;;;;5.58;96.64;101717.38;5053736;28;20024;-88
2023/01/30 09:03:21;;;;;;;23.58;5.40;;;;;;;5.65;95.97;101734.53;5053675;28;20028;-84
2023/01/30 09:05:52;;;;;;;23.65;5.25;;;;;;;5.68;96.46;101731.78;5052944;28;20396;-88
2023/01/30 09:08:17;;;;;;;21.10;4.68;;;;;;;5.74;95.48;101746.38;5037742;28;20485;-84
2023/01/30 09:10:43;;;;;;;21.33;5.57;;;;;;;5.80;95.13;101751.34;5035161;28;20022;-87
2023/01/30 09:13:09;;;;;;;21.95;4.82;;;;;;;5.81;96.34;101755.66;5052114;28;20040;-86
2023/01/30 09:15:34;;;;;;;24.30;4.97;;;;;;;5.87;93.89;101752.78;5051615;28;20066;-89
2023/01/30 09:17:59;;;;;;;25.52;5.60;;;;;;;5.94;93.86;101764.72;5052831;28;20040;-89
2023/01/30 09:20:25;;;;;;;26.20;5.13;;;;;;;5.97;93.64;101756.75;5052487;28;20074;-89
2023/01/30 09:22:50;;;;;;;24.92;5.65;;;;;;;6.00;94.01;101754.03;5035160;28;20049;-89
2023/01/30 09:25:19;;;;;;;19.45;4.95;;;;;;;6.07;93.91;101760.72;5050995;28;20035;-89
2023/01/30 09:27:47;;;;;;;26.83;5.60;;;;;;;6.06;94.15;101759.03;5047702;28;20074;-89
2023/01/30 09:30:13;;;;;;;23.63;5.18;;;;;;;6.10;93.32;101760.59;5052691;28;20078;-89
2023/01/30 09:32:38;;;;;;;23.00;4.93;;;;;;;6.18;92.27;101773.34;5022100;28;20029;-88
2023/01/30 09:35:04;;;;;;;18.17;4.78;;;;;;;6.21;91.78;101771.47;5044582;28;20068;-89
2023/01/30 09:37:29;;;;;;;27.95;5.55;;;;;;;6.29;91.45;101774.59;5034647;28;20040;-89
2023/01/30 09:39:55;;;;;;;24.80;5.05;;;;;;;6.35;91.52;101780.47;5051696;28;20123;-89
2023/01/30 09:42:23;;;;;;;21.08;4.88;;;;;;;6.39;92.29;101784.66;5030084;28;20025;-88
2023/01/30 09:44:57;;;;;;;24.42;5.68;;;;;;;6.53;90.41;101782.34;5049529;28;20029;-88
2023/01/30 09:47:39;;;;;;;21.05;5.03;;;;;;;6.65;90.49;101779.22;5056209;28;20025;-89
2023/01/30 09:50:38;;;;;;;23.92;5.03;;;;;;;6.72;90.10;101783.25;5059648;28;20021;-88
2023/01/30 09:53:20;;;;;;;27.52;5.35;;;;;;;6.73;87.65;101794.56;5050750;28;20036;-89
2023/01/30 09:55:49;;;;;;;22.83;5.30;;;;;;;6.67;87.65;101785.22;5056743;28;20016;-89
2023/01/30 09:58:20;;;;;;;23.17;5.10;;;;;;;6.69;88.95;101787.75;5053473;28;20017;-83
2023/01/30 10:01:02;;;;;;;24.15;5.30;;;;;;;6.73;88.63;101791.94;5054323;28;20450;-88
2023/01/30 10:03:51;;;;;;;21.38;4.68;;;;;;;6.73;87.83;101800.66;5051072;28;20031;-88
2023/01/30 10:06:17;;;;;;;23.38;5.13;;;;;;;6.71;88.09;101786.78;5063589;28;20028;-83
2023/01/30 10:08:48;;;;;;;19.48;4.22;;;;;;;6.77;85.96;101796.13;5067721;28;20009;-90
2023/01/30 10:11:29;;;;;;;20.35;4.63;;;;;;;6.80;87.82;101802.06;5063819;28;20021;-88
2023/01/30 10:14:19;;;;;;;30.38;5.03;;;;;;;6.80;87.03;101806.47;5061638;28;20029;-84
2023/01/30 10:16:53;;;;;;;20.13;4.68;;;;;;;6.84;87.44;101808.91;5046271;28;20037;-90
2023/01/30 10:19:43;;;;;;;25.30;4.93;;;;;;;6.89;86.02;101822.63;5063081;28;20106;-88
2023/01/30 10:22:40;;;;;;;19.50;4.95;;;;;;;6.93;86.27;101823.34;5030289;28;20509;-89
2023/01/30 10:25:26;;;;;;;23.48;4.70;;;;;;;6.99;87.18;101819.63;5042773;28;20535;-88
2023/01/30 10:28:29;;;;;;;23.00;4.93;;;;;;;7.03;86.38;101822.03;5054937;28;20031;-88
2023/01/30 10:31:06;;;;;;;20.50;4.57;;;;;;;7.01;84.78;101825.63;5049663;28;20108;-89
2023/01/30 10:33:34;;;;;;;22.42;4.55;;;;;;;7.01;84.53;101821.25;5050448;28;20036;-89
2023/01/30 10:36:09;;;;;;;22.80;4.68;;;;;;;7.01;84.06;101836.09;5051193;28;20025;-88
2023/01/30 10:38:39;;;;;;;20.85;4.47;;;;;;;7.02;83.58;101828.19;5037959;28;20435;-89
2023/01/30 10:41:12;;;;;;;18.75;4.03;;;;;;;7.07;84.03;101820.97;5031059;28;20025;-88
2023/01/30 10:43:46;;;;;;;;;;;;;;;7.18;86.42;101831.81;5054067;28;20095;-89
2023/01/30 10:46:38;;;;;;;19.00;4.63;;;;;;;7.16;83.95;101840.66;5057202;28;19913;-90
2023/01/30 10:49:21;;;;;;;23.98;4.45;;;;;;;7.16;84.11;101832.78;5063360;28;20103;-90
2023/01/30 10:51:52;;;;;;;20.00;4.43;;;;;;;7.12;82.42;101837.31;5048779;28;20099;-90
2023/01/30 10:54:36;;;;;;;20.98;4.43;;;;;;;7.09;83.99;101839.22;5046279;28;20032;-85
2023/01/30 10:57:13;;;;;;;18.98;3.60;;;;;;;7.03;84.58;101844.72;5045668;28;20033;-90
2023/01/30 11:00:01;;;;;;;22.13;4.50;;;;;;;6.97;83.57;101850.22;5042105;28;20032;-90
2023/01/30 11:02:48;;;;;;;22.80;4.38;;;;;;;6.93;82.10;101846.91;5046361;28;20025;-91
2023/01/30 11:05:17;;;;;;;22.77;4.72;;;;;;;6.90;83.11;101832.19;5041420;28;20029;-84
2023/01/30 11:07:45;;;;;;;20.30;5.00;;;;;;;6.90;82.74;101853.09;5045811;28;20504;-90
2023/01/30 11:10:30;;;;;;;18.50;4.43;;;;;;;6.91;81.74;101846.09;5031701;28;20025;-90
2023/01/30 11:12:59;;;;;;;29.75;5.18;;;;;;;6.84;81.40;101850.75;5050485;28;20017;-91
2023/01/30 11:15:39;;;;;;;19.60;4.55;;;;;;;6.85;81.78;101839.38;5050630;28;20654;-90
2023/01/30 11:18:05;;;;;;;20.95;4.47;;;;;;;6.85;82.59;101855.06;5041952;28;20029;-84
2023/01/30 11:20:39;;;;;;;19.88;4.53;;;;;;;6.87;81.19;101855.00;5015200;28;20032;-90
2023/01/30 11:23:30;;;;;;;20.10;4.65;;;;;;;6.86;80.72;101853.31;5052151;28;20052;-90
2023/01/30 11:25:57;;;;;;;18.90;4.25;;;;;;;6.88;80.41;101857.56;5051355;28;20041;-91
2023/01/30 11:28:25;;;;;;;20.92;4.28;;;;;;;6.89;80.58;101847.94;5061767;28;20029;-92
2023/01/30 11:30:57;;;;;;;21.80;4.72;;;;;;;6.98;80.34;101846.69;5059682;28;20028;-91
2023/01/30 11:33:31;;;;;;;20.80;4.75;;;;;;;7.04;81.20;101830.72;5054837;28;20029;-90
2023/01/30 11:36:21;;;;;;;21.85;4.95;;;;;;;7.07;79.91;101846.28;5058196;28;20035;-90
2023/01/30 11:39:11;;;;;;;21.42;4.93;;;;;;;7.09;79.80;101853.16;5053465;28;20055;-91